Time;durP1;ratioP1;P1;durP2;ratioP2;P2;SDS_P1;SDS_P2;PMS_P1;PMS_P2;Temp;Humidity;BMP_temperature;BMP_pressure;BME280_temperature;BME280_humidity;BME280_pressure;Samples;Min_cycle;Max_cycle;Signal;HPM_P1;HPM_P2
2021/08/07 00:02:07;;;;;;;9.25;3.33;;;;;;;20.11;57.29;98285.78;5108754;28;20070;-91
2021/08/07 00:04:33;;;;;;;7.45;3.50;;;;;;;20.19;57.47;98305.94;5112222;28;20404;-89
2021/08/07 00:06:59;;;;;;;7.13;3.60;;;;;;;20.11;58.41;98307.38;5112658;28;20032;-91
2021/08/07 00:09:25;;;;;;;7.65;3.83;;;;;;;20.07;57.96;98310.41;5111681;28;20036;-92
2021/08/07 00:11:52;;;;;;;8.27;3.90;;;;;;;19.91;58.35;98291.78;5114648;27;20036;-89
2021/08/07 00:14:18;;;;;;;8.82;4.75;;;;;;;19.83;58.05;98294.19;5118597;27;20126;-89
2021/08/07 00:16:44;;;;;;;5.82;3.15;;;;;;;19.84;58.17;98293.19;5112436;28;20074;-92
2021/08/07 00:19:09;;;;;;;22.15;4.22;;;;;;;19.79;58.06;98290.84;5116023;27;20489;-90
2021/08/07 00:21:35;;;;;;;18.30;4.13;;;;;;;19.87;57.87;98307.34;5115359;28;20035;-90
2021/08/07 00:24:01;;;;;;;8.63;4.18;;;;;;;19.81;57.97;98304.22;5116008;27;20043;-91
2021/08/07 00:26:27;;;;;;;7.25;3.97;;;;;;;19.77;57.81;98308.09;5119338;27;20510;-90
2021/08/07 00:28:54;;;;;;;7.13;3.78;;;;;;;19.66;58.18;98300.75;5115788;28;20059;-91
2021/08/07 00:31:20;;;;;;;7.03;3.53;;;;;;;19.62;58.07;98305.50;5112749;28;20039;-91
2021/08/07 00:33:46;;;;;;;7.65;3.83;;;;;;;19.54;58.25;98301.63;5112200;28;20116;-92
2021/08/07 00:36:12;;;;;;;7.07;3.45;;;;;;;19.49;58.17;98299.25;5113027;28;20403;-90
2021/08/07 00:38:38;;;;;;;6.63;3.60;;;;;;;19.44;58.75;98307.69;5111001;28;20119;-89
2021/08/07 00:41:04;;;;;;;7.30;3.20;;;;;;;19.34;58.97;98298.50;5107462;27;20044;-88
2021/08/07 00:43:30;;;;;;;8.40;3.90;;;;;;;19.38;58.96;98299.16;5114739;28;20038;-89
2021/08/07 00:45:57;;;;;;;7.78;3.67;;;;;;;19.31;59.05;98304.13;5109971;28;20131;-90
2021/08/07 00:48:24;;;;;;;8.25;3.80;;;;;;;19.25;58.82;98293.75;5113140;28;20054;-89
2021/08/07 00:50:50;;;;;;;7.90;4.07;;;;;;;19.18;59.30;98300.56;5116991;27;20048;-91
2021/08/07 00:53:16;;;;;;;9.23;3.83;;;;;;;19.23;59.55;98320.81;5113519;28;20036;-91
2021/08/07 00:55:42;;;;;;;8.98;3.75;;;;;;;19.04;59.56;98299.69;5113320;28;20042;-89
2021/08/07 00:58:08;;;;;;;8.90;4.18;;;;;;;19.09;59.97;98321.78;5114461;27;20043;-88
2021/08/07 01:00:34;;;;;;;6.57;3.60;;;;;;;18.97;60.02;98305.59;5108197;28;20046;-92
2021/08/07 01:03:08;;;;;;;12.73;3.85;;;;;;;19.11;60.49;98321.69;5118938;27;20054;-89
2021/08/07 01:05:42;;;;;;;5.63;3.80;;;;;;;19.12;60.86;98330.63;5114843;28;20110;-88
2021/08/07 01:08:15;;;;;;;8.27;4.00;;;;;;;19.06;60.86;98334.59;5114461;28;20497;-90
2021/08/07 01:10:47;;;;;;;9.02;3.90;;;;;;;18.88;60.80;98315.19;5112665;28;20047;-91
2021/08/07 01:13:21;;;;;;;7.80;3.70;;;;;;;18.92;60.94;98327.47;5112976;28;20036;-88
2021/08/07 01:15:53;;;;;;;9.07;5.03;;;;;;;18.87;61.43;98326.94;5112422;28;20039;-91
2021/08/07 01:18:24;;;;;;;8.60;4.20;;;;;;;18.72;61.53;98292.94;5112975;27;20033;-88
2021/08/07 01:20:53;;;;;;;9.55;4.22;;;;;;;18.87;61.78;98330.47;5108417;28;20040;-91
2021/08/07 01:23:23;;;;;;;;;;;;;;;18.85;61.86;98320.78;5116118;27;20042;-88
2021/08/07 01:26:00;;;;;;;9.18;4.20;;;;;;;18.76;62.04;98316.84;5108634;28;19942;-91
2021/08/07 01:28:30;;;;;;;9.25;4.40;;;;;;;18.75;61.86;98323.19;5112230;28;20052;-87
2021/08/07 01:30:57;;;;;;;7.55;4.30;;;;;;;18.64;62.00;98315.84;5110333;28;20043;-92
2021/08/07 01:33:26;;;;;;;7.22;3.88;;;;;;;18.50;62.18;98293.50;5112275;28;20093;-89
2021/08/07 01:35:54;;;;;;;9.02;4.00;;;;;;;18.53;62.52;98320.22;5113308;28;20054;-91
2021/08/07 01:38:20;;;;;;;8.50;4.40;;;;;;;18.51;62.50;98312.25;5111577;28;20036;-89
2021/08/07 01:40:48;;;;;;;8.90;4.03;;;;;;;18.48;62.30;98307.06;5101509;28;20036;-89
2021/08/07 01:43:14;;;;;;;9.33;4.03;;;;;;;18.52;62.33;98313.09;5101383;28;20733;-90
2021/08/07 01:45:45;;;;;;;8.15;3.83;;;;;;;18.51;62.26;98323.00;5111259;28;20515;-89
2021/08/07 01:48:15;;;;;;;7.38;4.05;;;;;;;18.50;62.42;98325.78;5109534;28;20042;-91
2021/08/07 01:50:45;;;;;;;8.40;4.55;;;;;;;18.48;61.98;98312.47;5102246;28;20029;-90
2021/08/07 01:53:18;;;;;;;8.70;3.58;;;;;;;18.41;62.19;98294.97;5112453;28;20039;-88
2021/08/07 01:55:49;;;;;;;10.88;4.05;;;;;;;18.50;62.24;98315.03;5111433;28;20032;-90
2021/08/07 01:58:24;;;;;;;7.00;4.15;;;;;;;18.44;62.19;98314.47;5114559;28;20486;-91
2021/08/07 02:00:52;;;;;;;11.73;4.03;;;;;;;18.28;62.09;98294.91;5110194;28;20051;-90
2021/08/07 02:03:19;;;;;;;9.05;4.15;;;;;;;18.37;62.59;98310.47;5111629;28;20127;-90
2021/08/07 02:05:45;;;;;;;12.02;4.00;;;;;;;18.20;62.74;98294.59;5114925;28;20124;-92
2021/08/07 02:08:12;;;;;;;9.30;3.83;;;;;;;18.32;62.81;98314.44;5109125;28;20036;-89
2021/08/07 02:10:41;;;;;;;7.38;3.92;;;;;;;18.14;62.87;98293.16;5112777;28;20136;-91
2021/08/07 02:13:08;;;;;;;15.45;5.93;;;;;;;18.30;62.84;98309.13;5104870;28;20100;-88
2021/08/07 02:15:35;;;;;;;7.00;3.97;;;;;;;18.11;63.09;98279.91;5101980;28;20039;-90
2021/08/07 02:18:02;;;;;;;8.65;4.03;;;;;;;18.09;63.03;98281.84;5113659;28;20412;-90
2021/08/07 02:20:29;;;;;;;9.40;3.92;;;;;;;18.11;63.57;98287.97;5114107;28;20423;-91
2021/08/07 02:22:55;;;;;;;7.20;3.88;;;;;;;18.09;63.36;98289.91;5118916;27;20040;-90
2021/08/07 02:25:22;;;;;;;7.05;3.40;;;;;;;18.06;63.43;98282.91;5108835;28;20413;-91
2021/08/07 02:27:48;;;;;;;8.77;3.72;;;;;;;18.21;63.36;98307.91;5116371;28;20081;-90
2021/08/07 02:30:14;;;;;;;6.28;3.92;;;;;;;18.11;63.46;98285.28;5112328;28;20084;-87
2021/08/07 02:32:41;;;;;;;7.00;4.15;;;;;;;18.06;63.79;98279.31;5118454;28;20122;-90
2021/08/07 02:35:11;;;;;;;8.05;3.97;;;;;;;18.20;63.22;98299.97;5107270;28;20044;-91
2021/08/07 02:37:43;;;;;;;8.35;3.97;;;;;;;18.19;63.37;98301.78;5116415;28;20035;-91
2021/08/07 02:40:11;;;;;;;8.63;3.88;;;;;;;18.19;63.53;98308.97;5112800;28;20100;-90
2021/08/07 02:42:38;;;;;;;7.90;3.90;;;;;;;18.14;63.73;98303.06;5115069;28;20144;-89
2021/08/07 02:45:06;;;;;;;7.32;3.78;;;;;;;18.20;63.62;98308.03;5114612;27;20042;-92
2021/08/07 02:47:33;;;;;;;6.38;3.72;;;;;;;18.15;63.35;98305.66;5116265;28;20062;-92
2021/08/07 02:49:59;;;;;;;9.07;4.07;;;;;;;18.14;63.63;98306.59;5107713;28;20156;-89
2021/08/07 02:52:27;;;;;;;7.25;3.60;;;;;;;17.96;63.66;98272.84;5106274;28;20070;-93
2021/08/07 02:54:53;;;;;;;6.85;3.67;;;;;;;18.03;64.23;98295.69;5106530;28;20070;-91
2021/08/07 02:57:19;;;;;;;6.50;3.78;;;;;;;18.03;64.05;98298.38;5107439;28;20032;-91
2021/08/07 02:59:45;;;;;;;7.57;3.83;;;;;;;18.02;64.08;98299.31;5110972;28;20036;-89
2021/08/07 03:02:11;;;;;;;7.07;3.95;;;;;;;17.99;64.18;98292.31;5114412;28;20063;-89
2021/08/07 03:04:37;;;;;;;10.48;3.95;;;;;;;17.98;64.46;98300.50;5116154;28;20460;-90
2021/08/07 03:07:03;;;;;;;9.52;4.00;;;;;;;17.99;64.09;98296.84;5116383;28;20045;-91
2021/08/07 03:09:30;;;;;;;7.60;4.68;;;;;;;17.95;64.27;98303.38;5109089;28;20046;-91
2021/08/07 03:11:56;;;;;;;8.85;3.83;;;;;;;17.92;64.29;98315.22;5117842;28;20088;-91
2021/08/07 03:14:22;;;;;;;7.63;3.50;;;;;;;17.80;64.41;98289.94;5115930;28;20043;-90
2021/08/07 03:16:48;;;;;;;6.82;3.80;;;;;;;17.79;64.52;98293.56;5113820;28;20101;-90
2021/08/07 03:19:13;;;;;;;8.15;4.13;;;;;;;17.72;65.53;98303.00;5115732;28;20374;-89
2021/08/07 03:21:39;;;;;;;9.27;3.58;;;;;;;17.58;65.52;98285.03;5115614;28;20046;-89
2021/08/07 03:24:05;;;;;;;8.02;3.83;;;;;;;17.63;65.50;98293.69;5103817;28;20147;-90
2021/08/07 03:26:32;;;;;;;6.85;3.80;;;;;;;17.51;65.02;98274.78;5104862;28;20371;-92
2021/08/07 03:28:58;;;;;;;7.28;3.90;;;;;;;17.69;65.07;98303.19;5113960;28;20039;-89
2021/08/07 03:31:24;;;;;;;6.75;3.88;;;;;;;17.66;64.99;98300.69;5106285;28;20416;-91
2021/08/07 03:33:50;;;;;;;8.70;4.28;;;;;;;17.68;65.14;98308.69;5114930;28;20035;-89
2021/08/07 03:36:15;;;;;;;9.65;4.15;;;;;;;17.63;65.31;98304.47;5112449;28;20453;-89
2021/08/07 03:38:41;;;;;;;9.15;4.03;;;;;;;17.60;65.44;98310.00;5112557;28;20054;-92
2021/08/07 03:41:07;;;;;;;8.48;4.38;;;;;;;17.59;65.76;98312.81;5106811;28;20039;-92
2021/08/07 03:43:34;;;;;;;7.03;3.70;;;;;;;17.57;65.71;98306.66;5106370;28;20044;-90
2021/08/07 03:46:00;;;;;;;7.63;3.88;;;;;;;17.55;65.74;98305.91;5114757;28;20027;-90
2021/08/07 03:48:26;;;;;;;7.32;4.25;;;;;;;17.59;65.79;98305.59;5115481;28;20042;-92
2021/08/07 03:50:51;;;;;;;6.35;3.80;;;;;;;17.58;65.59;98314.63;5117020;28;20814;-91
2021/08/07 03:53:17;;;;;;;7.55;3.83;;;;;;;17.56;65.52;98313.84;5115158;28;20035;-92
2021/08/07 03:55:43;;;;;;;7.90;3.65;;;;;;;17.57;65.88;98312.91;5115226;28;20063;-92
2021/08/07 03:58:09;;;;;;;9.13;4.72;;;;;;;17.54;65.77;98307.69;5110651;28;20039;-92
2021/08/07 04:00:36;;;;;;;9.32;4.32;;;;;;;17.36;65.75;98279.31;5099700;28;20028;-91
2021/08/07 04:03:03;;;;;;;10.98;4.30;;;;;;;17.48;66.17;98307.22;5116759;28;20035;-92
2021/08/07 04:05:29;;;;;;;11.52;3.90;;;;;;;17.39;65.97;98288.06;5116506;28;20460;-92
2021/08/07 04:08:00;;;;;;;8.48;4.22;;;;;;;17.51;66.24;98313.28;5114766;28;20059;-88
2021/08/07 04:10:25;;;;;;;7.30;3.90;;;;;;;17.45;66.39;98317.22;5104655;28;20126;-89
2021/08/07 04:12:51;;;;;;;6.38;3.42;;;;;;;17.47;66.71;98316.25;5104824;28;20454;-91
2021/08/07 04:15:17;;;;;;;8.48;4.00;;;;;;;17.42;66.80;98311.19;5111185;28;20043;-88
2021/08/07 04:17:44;;;;;;;7.65;4.22;;;;;;;17.37;66.64;98295.34;5107781;28;20046;-90
2021/08/07 04:20:11;;;;;;;9.75;4.07;;;;;;;17.38;66.56;98288.13;5110221;28;20131;-89
2021/08/07 04:22:37;;;;;;;6.95;3.85;;;;;;;17.56;66.86;98326.44;5105149;28;20812;-91
2021/08/07 04:25:04;;;;;;;8.10;3.70;;;;;;;17.55;66.77;98330.09;5105269;28;20039;-90
2021/08/07 04:27:30;;;;;;;8.35;4.10;;;;;;;17.53;66.94;98324.81;5113750;28;20421;-91
2021/08/07 04:29:55;;;;;;;9.07;4.18;;;;;;;17.60;67.08;98325.28;5100205;28;20036;-92
2021/08/07 04:32:21;;;;;;;7.05;3.70;;;;;;;17.60;66.76;98326.13;5112990;28;20032;-91
2021/08/07 04:34:49;;;;;;;8.85;4.22;;;;;;;17.56;67.25;98334.50;5115608;28;20131;-91
2021/08/07 04:37:15;;;;;;;9.50;5.18;;;;;;;17.52;67.26;98324.91;5114462;28;20047;-90
2021/08/07 04:39:40;;;;;;;7.75;4.03;;;;;;;17.49;66.94;98322.41;5107815;28;20061;-91
2021/08/07 04:42:07;;;;;;;9.25;4.10;;;;;;;17.67;67.14;98345.44;5105239;28;20044;-91
2021/08/07 04:44:33;;;;;;;8.13;4.00;;;;;;;17.68;66.64;98333.75;5113325;28;20125;-90
2021/08/07 04:46:59;;;;;;;11.25;4.20;;;;;;;17.72;66.92;98331.69;5101385;28;20028;-90
2021/08/07 04:49:25;;;;;;;8.10;3.88;;;;;;;17.69;66.48;98305.03;5113387;28;20084;-91
2021/08/07 04:51:52;;;;;;;7.57;3.95;;;;;;;17.76;66.67;98318.00;5115976;28;20059;-88
2021/08/07 04:54:18;;;;;;;9.90;3.78;;;;;;;17.91;66.24;98339.50;5109596;28;20059;-92
2021/08/07 04:56:44;;;;;;;9.57;4.25;;;;;;;17.96;66.17;98342.78;5116159;28;20059;-90
2021/08/07 04:59:10;;;;;;;9.05;4.07;;;;;;;17.98;66.48;98344.41;5116118;28;20067;-91
2021/08/07 05:01:36;;;;;;;10.35;4.10;;;;;;;18.03;66.64;98338.72;5113547;28;20028;-90
2021/08/07 05:04:01;;;;;;;11.65;4.75;;;;;;;18.02;66.52;98329.81;5115124;28;20035;-91
2021/08/07 05:06:27;;;;;;;11.65;3.95;;;;;;;18.10;66.46;98328.44;5115439;28;20489;-90
2021/08/07 05:08:54;;;;;;;7.75;3.92;;;;;;;18.08;66.43;98319.59;5112751;28;20043;-89
2021/08/07 05:11:20;;;;;;;8.60;3.92;;;;;;;18.14;66.32;98319.19;5115580;28;20119;-89
2021/08/07 05:13:46;;;;;;;9.90;3.90;;;;;;;18.32;66.01;98330.56;5111225;28;20066;-89
2021/08/07 05:16:12;;;;;;;9.00;3.85;;;;;;;18.38;65.60;98328.34;5113613;28;20040;-90
2021/08/07 05:18:38;;;;;;;8.98;4.05;;;;;;;18.72;64.82;98323.41;5113806;28;20069;-92
2021/08/07 05:21:04;;;;;;;6.75;4.15;;;;;;;19.18;63.86;98319.44;5114562;28;20111;-92
2021/08/07 05:23:29;;;;;;;9.55;4.00;;;;;;;19.54;62.87;98312.41;5109075;28;20081;-90
2021/08/07 05:25:56;;;;;;;8.30;4.22;;;;;;;19.89;61.29;98301.84;5112588;28;20040;-90
2021/08/07 05:28:22;;;;;;;8.18;3.67;;;;;;;20.22;60.46;98311.97;5113814;28;20126;-89
2021/08/07 05:30:48;;;;;;;6.10;4.03;;;;;;;20.55;58.83;98325.78;5109952;28;20126;-91
2021/08/07 05:33:14;;;;;;;10.10;4.53;;;;;;;20.51;58.34;98287.34;5112939;28;20035;-90
2021/08/07 05:35:39;;;;;;;5.82;3.78;;;;;;;20.84;57.82;98316.38;5102185;28;20036;-91
2021/08/07 05:38:05;;;;;;;7.65;4.22;;;;;;;20.95;57.23;98314.69;5102235;28;20109;-91
2021/08/07 05:40:31;;;;;;;8.77;4.72;;;;;;;21.15;56.85;98315.88;5112818;28;20032;-90
2021/08/07 05:42:58;;;;;;;10.80;4.10;;;;;;;21.38;56.32;98303.22;5113117;28;20031;-89
2021/08/07 05:45:24;;;;;;;9.20;3.92;;;;;;;21.58;55.90;98321.50;5110779;28;20082;-91
2021/08/07 05:47:50;;;;;;;8.98;4.50;;;;;;;21.63;55.59;98296.78;5113156;28;20063;-91
2021/08/07 05:50:15;;;;;;;10.63;4.63;;;;;;;21.69;54.90;98299.00;5103355;28;20062;-89
2021/08/07 05:52:42;;;;;;;11.00;4.57;;;;;;;21.99;54.35;98327.25;5112992;28;20093;-91
2021/08/07 05:55:09;;;;;;;9.98;4.25;;;;;;;22.11;53.84;98318.16;5107969;28;20062;-91
2021/08/07 05:57:35;;;;;;;9.20;4.40;;;;;;;22.30;53.64;98317.53;5117657;28;20032;-90
2021/08/07 06:00:02;;;;;;;8.63;4.55;;;;;;;22.44;53.20;98317.25;5115901;28;20065;-91
2021/08/07 06:02:32;;;;;;;8.32;5.20;;;;;;;22.57;52.81;98306.25;5118298;28;20092;-91
2021/08/07 06:04:58;;;;;;;8.77;4.40;;;;;;;22.56;52.24;98291.84;5117092;28;20051;-89
2021/08/07 06:07:24;;;;;;;9.68;4.30;;;;;;;22.69;51.90;98296.22;5110284;28;20774;-90
2021/08/07 06:09:49;;;;;;;10.77;4.40;;;;;;;22.83;51.59;98301.31;5116824;28;20513;-91
2021/08/07 06:12:15;;;;;;;7.10;4.03;;;;;;;22.88;51.31;98295.50;5113161;28;20040;-92
2021/08/07 06:14:41;;;;;;;12.18;4.60;;;;;;;23.06;51.50;98318.38;5112746;28;20489;-90
2021/08/07 06:17:08;;;;;;;7.30;4.40;;;;;;;23.03;51.41;98305.09;5109022;28;20039;-91
2021/08/07 06:19:35;;;;;;;10.07;4.25;;;;;;;23.08;51.92;98313.69;5115971;28;20696;-91
2021/08/07 06:22:01;;;;;;;10.80;4.20;;;;;;;23.29;50.69;98299.25;5116032;28;20114;-90
2021/08/07 06:24:26;;;;;;;15.23;5.65;;;;;;;23.53;49.82;98315.25;5116387;28;20127;-92
2021/08/07 06:26:52;;;;;;;8.10;4.57;;;;;;;23.56;49.46;98299.56;5114562;28;20119;-92
2021/08/07 06:29:18;;;;;;;10.25;4.70;;;;;;;23.71;49.13;98308.22;5107951;28;20040;-92
2021/08/07 06:31:44;;;;;;;10.23;5.63;;;;;;;23.93;48.59;98315.34;5114333;28;20040;-91
2021/08/07 06:34:11;;;;;;;10.30;4.65;;;;;;;23.99;48.29;98317.50;5116535;28;20062;-89
2021/08/07 06:36:37;;;;;;;10.25;5.22;;;;;;;24.07;48.22;98318.66;5113473;28;20035;-93
2021/08/07 06:39:03;;;;;;;7.95;4.55;;;;;;;24.13;46.78;98315.41;5110781;28;20036;-91
2021/08/07 06:41:29;;;;;;;10.80;4.88;;;;;;;24.28;46.12;98310.44;5117358;28;20074;-93
2021/08/07 06:43:55;;;;;;;8.40;4.30;;;;;;;24.39;45.09;98307.59;5110470;28;20055;-89
2021/08/07 06:46:21;;;;;;;8.70;4.30;;;;;;;24.47;44.47;98312.34;5107947;28;20803;-90
2021/08/07 06:48:47;;;;;;;10.80;4.70;;;;;;;24.36;43.91;98313.31;5115303;28;20088;-90
2021/08/07 06:51:14;;;;;;;11.45;4.07;;;;;;;24.37;44.77;98306.88;5115943;28;20040;-88
2021/08/07 06:53:40;;;;;;;13.35;7.65;;;;;;;24.29;44.44;98299.44;5115111;28;20046;-90
2021/08/07 06:56:06;;;;;;;10.40;5.90;;;;;;;24.63;44.23;98319.97;5115928;28;20071;-89
2021/08/07 06:58:32;;;;;;;8.98;4.50;;;;;;;24.70;43.64;98316.56;5115499;28;20118;-92
2021/08/07 07:00:58;;;;;;;13.35;7.13;;;;;;;24.97;43.61;98325.88;5111782;28;20392;-89
2021/08/07 07:03:24;;;;;;;13.23;6.45;;;;;;;25.09;43.15;98324.72;5114958;28;20039;-88
2021/08/07 07:05:50;;;;;;;10.10;5.80;;;;;;;25.28;42.92;98331.16;5114817;28;20036;-89
2021/08/07 07:08:19;;;;;;;11.88;4.32;;;;;;;25.23;42.62;98311.69;5113704;28;20533;-89
2021/08/07 07:10:45;;;;;;;7.85;4.22;;;;;;;25.24;42.68;98299.78;5108110;28;20036;-90
2021/08/07 07:13:12;;;;;;;9.88;4.35;;;;;;;24.99;43.05;98311.09;5114163;28;20047;-90
2021/08/07 07:15:38;;;;;;;8.38;4.38;;;;;;;25.25;42.75;98334.19;5103568;28;20393;-90
2021/08/07 07:18:04;;;;;;;8.75;4.35;;;;;;;25.25;41.69;98317.84;5113265;27;20130;-91
2021/08/07 07:20:30;;;;;;;9.25;4.00;;;;;;;24.98;42.68;98336.59;5116955;28;20122;-91
2021/08/07 07:22:56;;;;;;;12.15;4.68;;;;;;;25.08;42.08;98314.81;5110802;27;20089;-91
2021/08/07 07:25:23;;;;;;;7.25;4.38;;;;;;;25.60;41.62;98339.84;5109825;28;20092;-90
2021/08/07 07:27:49;;;;;;;10.73;4.80;;;;;;;25.70;41.57;98308.97;5112538;28;20572;-90
2021/08/07 07:30:16;;;;;;;11.38;4.28;;;;;;;25.94;41.08;98317.53;5106707;28;20119;-92
2021/08/07 07:32:42;;;;;;;6.85;3.85;;;;;;;26.17;40.86;98312.53;5111706;28;20062;-89
2021/08/07 07:35:09;;;;;;;11.50;4.35;;;;;;;26.38;40.65;98306.84;5116437;28;20046;-91
2021/08/07 07:37:35;;;;;;;9.70;4.22;;;;;;;26.47;39.94;98287.84;5113712;27;20043;-89
2021/08/07 07:40:01;;;;;;;11.80;4.00;;;;;;;26.78;39.58;98311.06;5115240;28;20096;-92
2021/08/07 07:42:28;;;;;;;8.57;4.55;;;;;;;26.74;38.51;98296.00;5115683;27;20753;-91
2021/08/07 07:44:54;;;;;;;7.70;3.80;;;;;;;26.98;38.78;98321.81;5110478;28;20051;-91
2021/08/07 07:47:19;;;;;;;8.27;3.65;;;;;;;27.03;37.82;98319.44;5114536;27;20428;-90
2021/08/07 07:49:45;;;;;;;10.05;4.10;;;;;;;27.06;37.90;98300.03;5110033;28;20071;-90
2021/08/07 07:52:11;;;;;;;7.40;3.47;;;;;;;27.25;38.00;98321.72;5116399;27;20103;-89
2021/08/07 07:54:37;;;;;;;6.90;3.63;;;;;;;27.22;38.08;98305.66;5113602;28;20728;-90
2021/08/07 07:57:03;;;;;;;6.63;3.83;;;;;;;27.56;37.64;98323.97;5113785;28;20069;-91
2021/08/07 07:59:31;;;;;;;9.68;3.95;;;;;;;27.61;37.72;98326.25;5113113;27;20036;-90
2021/08/07 08:02:02;;;;;;;12.88;3.78;;;;;;;27.55;37.83;98316.81;5112780;27;20043;-90
2021/08/07 08:04:29;;;;;;;7.97;3.75;;;;;;;27.69;37.25;98292.66;5113798;28;20554;-89
2021/08/07 08:06:55;;;;;;;10.63;3.83;;;;;;;27.91;36.93;98319.47;5113462;28;20036;-90
2021/08/07 08:09:21;;;;;;;6.78;3.80;;;;;;;27.77;37.65;98317.28;5113607;28;20032;-90
2021/08/07 08:11:46;;;;;;;7.97;3.80;;;;;;;27.65;37.60;98303.03;5114500;28;20063;-91
2021/08/07 08:14:12;;;;;;;9.00;3.97;;;;;;;27.87;38.43;98309.88;5107822;28;20042;-92
2021/08/07 08:16:39;;;;;;;6.47;3.80;;;;;;;28.13;36.85;98317.16;5112619;28;20092;-91
2021/08/07 08:19:06;;;;;;;8.45;4.13;;;;;;;27.49;38.48;98317.44;5109792;28;20852;-91
2021/08/07 08:21:33;;;;;;;7.45;4.22;;;;;;;27.77;38.54;98309.09;5113959;28;20047;-92
2021/08/07 08:23:59;;;;;;;7.53;3.97;;;;;;;28.20;37.66;98321.81;5114000;28;20126;-93
2021/08/07 08:26:25;;;;;;;8.25;4.28;;;;;;;27.88;37.62;98308.00;5109776;28;20119;-93
2021/08/07 08:28:51;;;;;;;10.38;4.15;;;;;;;28.13;37.47;98317.16;5108524;28;20385;-92
2021/08/07 08:31:17;;;;;;;6.50;3.80;;;;;;;28.32;37.21;98310.56;5111630;28;20546;-91
2021/08/07 08:33:44;;;;;;;6.90;3.60;;;;;;;28.24;37.51;98303.19;5115108;28;20076;-91
2021/08/07 08:36:11;;;;;;;8.07;4.18;;;;;;;28.16;37.41;98314.09;5116327;28;20097;-94
2021/08/07 08:38:36;;;;;;;7.78;4.00;;;;;;;27.73;38.36;98288.56;5111719;28;20501;-94
2021/08/07 08:41:03;;;;;;;6.63;4.40;;;;;;;27.94;38.54;98312.81;5114617;28;20038;-93
2021/08/07 08:43:29;;;;;;;10.35;4.63;;;;;;;28.04;38.50;98311.66;5113567;28;20052;-91
2021/08/07 08:45:54;;;;;;;6.97;4.13;;;;;;;28.21;37.78;98303.50;5112642;28;20051;-93
2021/08/07 08:48:21;;;;;;;11.38;4.57;;;;;;;27.85;38.85;98312.75;5116202;28;20386;-94
2021/08/07 08:50:49;;;;;;;15.95;4.53;;;;;;;28.03;39.05;98309.09;5115965;28;20044;-92
2021/08/07 08:53:15;;;;;;;7.07;3.92;;;;;;;28.43;38.11;98291.97;5115148;28;20044;-92
2021/08/07 08:55:42;;;;;;;8.55;4.40;;;;;;;28.75;37.67;98308.66;5105073;28;20024;-94
2021/08/07 08:58:07;;;;;;;11.20;4.55;;;;;;;29.15;36.65;98302.41;5106188;28;20496;-93
2021/08/07 09:00:33;;;;;;;7.78;4.57;;;;;;;29.14;36.82;98286.13;5106474;28;20031;-94
2021/08/07 09:03:00;;;;;;;8.68;4.10;;;;;;;29.22;37.08;98305.31;5103448;28;20045;-93
2021/08/07 09:05:26;;;;;;;9.48;4.32;;;;;;;29.41;36.48;98293.16;5102743;28;20047;-90
2021/08/07 09:07:53;;;;;;;8.68;3.83;;;;;;;28.90;37.23;98295.16;5111605;28;20032;-93
2021/08/07 09:10:22;;;;;;;11.30;4.43;;;;;;;29.30;37.27;98308.06;5111106;28;20529;-94
2021/08/07 09:12:50;;;;;;;7.05;4.45;;;;;;;28.94;36.78;98297.38;5116139;28;20397;-92
2021/08/07 09:15:28;;;;;;;8.65;3.90;;;;;;;29.48;36.56;98296.91;5112859;28;20104;-94
2021/08/07 09:18:17;;;;;;;8.65;4.18;;;;;;;29.80;35.60;98303.38;5115768;28;20047;-93
2021/08/07 09:20:46;;;;;;;8.20;3.97;;;;;;;29.62;35.38;98296.16;5117213;28;20054;-96
2021/08/07 09:23:32;;;;;;;13.25;4.30;;;;;;;28.81;37.15;98294.31;5117984;28;20112;-96
2021/08/07 09:26:11;;;;;;;11.32;4.18;;;;;;;29.52;36.56;98302.88;5114420;28;20047;-94
2021/08/07 09:28:53;;;;;;;7.22;3.72;;;;;;;29.96;36.03;98299.72;5107454;28;20066;-93
2021/08/07 09:31:21;;;;;;;10.00;3.88;;;;;;;30.24;34.22;98295.47;5111323;28;20039;-94
2021/08/07 09:34:14;;;;;;;7.43;4.00;;;;;;;30.53;34.38;98295.88;5111090;28;20035;-94
2021/08/07 09:36:46;;;;;;;7.80;4.07;;;;;;;30.68;33.67;98292.16;5113935;28;20046;-92
2021/08/07 09:39:14;;;;;;;10.75;3.58;;;;;;;30.79;33.69;98304.63;5112879;28;20051;-96
2021/08/07 09:41:56;;;;;;;6.20;3.47;;;;;;;30.92;32.36;98301.31;5098772;28;20028;-92
2021/08/07 09:44:22;;;;;;;8.52;3.45;;;;;;;30.99;32.44;98298.69;5112737;27;20035;-94
2021/08/07 09:46:48;;;;;;;8.90;3.80;;;;;;;30.97;32.07;98306.25;5105461;28;20075;-92
2021/08/07 09:49:14;;;;;;;9.00;3.83;;;;;;;30.60;32.85;98272.16;5113564;28;20040;-89
2021/08/07 09:51:40;;;;;;;9.40;3.88;;;;;;;30.58;33.24;98280.59;5098570;28;20048;-93
2021/08/07 09:54:09;;;;;;;10.50;4.22;;;;;;;30.63;33.39;98263.59;5105803;28;20101;-94
2021/08/07 09:56:57;;;;;;;11.13;4.25;;;;;;;31.01;33.06;98292.00;5114319;28;20059;-92
2021/08/07 09:59:25;;;;;;;6.95;3.67;;;;;;;30.98;32.64;98280.50;5111125;28;20047;-92
2021/08/07 10:01:53;;;;;;;11.07;4.25;;;;;;;30.68;33.43;98270.22;5113787;28;20040;-94
2021/08/07 10:07:19;;;;;;;11.73;4.20;;;;;;;31.11;32.58;98286.22;5133320;27;20783;-94
2021/08/07 10:09:45;;;;;;;9.23;3.77;;;;;;;30.83;32.67;98267.53;5104118;28;20040;-93
2021/08/07 10:12:13;;;;;;;8.52;4.05;;;;;;;31.17;32.78;98268.19;5097963;28;20086;-94
2021/08/07 10:14:40;;;;;;;7.55;3.70;;;;;;;31.17;32.00;98280.00;5105173;28;20520;-93
2021/08/07 10:17:09;;;;;;;9.23;3.87;;;;;;;31.35;31.62;98254.09;5094284;28;20499;-93
2021/08/07 10:19:35;;;;;;;16.05;3.95;;;;;;;31.58;30.60;98276.91;5102160;28;20050;-92
2021/08/07 10:22:05;;;;;;;7.38;3.30;;;;;;;31.68;30.28;98268.38;5103750;28;20044;-93
2021/08/07 10:24:35;;;;;;;8.57;3.80;;;;;;;31.54;30.77;98247.25;5102567;28;20039;-93
2021/08/07 10:27:02;;;;;;;6.30;3.47;;;;;;;31.51;30.73;98245.69;5109016;28;20036;-91
2021/08/07 10:29:37;;;;;;;8.23;3.67;;;;;;;31.79;30.54;98261.53;5108475;28;20062;-94
2021/08/07 10:32:06;;;;;;;;;;;;;;;31.96;30.46;98267.72;5106720;28;20043;-94
2021/08/07 10:34:34;;;;;;;11.70;3.83;;;;;;;31.87;30.19;98262.31;5107428;28;19981;-92
2021/08/07 10:37:00;;;;;;;7.15;3.80;;;;;;;32.01;30.00;98262.50;5106361;28;20027;-91
2021/08/07 10:39:28;;;;;;;5.60;3.60;;;;;;;31.98;29.15;98251.91;5111136;28;20040;-92
2021/08/07 10:41:58;;;;;;;8.73;3.95;;;;;;;31.54;29.79;98247.25;5106602;28;20045;-94
2021/08/07 10:44:25;;;;;;;5.07;3.30;;;;;;;31.73;29.60;98260.44;5109195;28;20055;-92
2021/08/07 10:46:53;;;;;;;8.65;3.88;;;;;;;31.62;29.44;98242.50;5105531;28;20066;-93
2021/08/07 10:49:32;;;;;;;6.68;3.40;;;;;;;31.72;29.35;98255.94;5105476;28;20055;-94
2021/08/07 10:51:58;;;;;;;7.78;3.80;;;;;;;31.50;29.02;98231.09;5108128;28;20047;-92
2021/08/07 10:54:38;;;;;;;10.55;3.97;;;;;;;31.65;29.40;98236.63;5107872;28;20093;-93
2021/08/07 10:57:05;;;;;;;6.40;3.60;;;;;;;31.65;29.47;98220.13;5100718;28;20050;-95
2021/08/07 10:59:39;;;;;;;12.30;4.40;;;;;;;31.56;30.66;98229.50;5111672;28;20489;-94
2021/08/07 11:02:19;;;;;;;8.52;3.90;;;;;;;31.49;30.77;98234.91;5105864;28;20040;-93
2021/08/07 11:04:47;;;;;;;10.80;3.78;;;;;;;31.11;32.13;98225.81;5107991;28;20569;-94
2021/08/07 11:07:17;;;;;;;10.27;4.32;;;;;;;31.69;30.98;98228.84;5110314;28;20393;-91
2021/08/07 11:09:43;;;;;;;8.50;4.20;;;;;;;31.62;30.55;98231.50;5103505;28;20047;-92
2021/08/07 11:12:29;;;;;;;9.32;4.40;;;;;;;31.82;30.80;98231.78;5106057;28;20359;-91
2021/08/07 11:15:10;;;;;;;7.03;3.97;;;;;;;31.85;31.77;98211.31;5104169;28;20055;-93
2021/08/07 11:17:49;;;;;;;8.32;4.38;;;;;;;32.04;31.34;98218.97;5090521;28;20052;-92
2021/08/07 11:20:35;;;;;;;10.27;4.32;;;;;;;32.11;31.94;98219.91;5087325;28;20133;-93
2021/08/07 11:23:21;;;;;;;8.57;4.10;;;;;;;31.73;32.60;98209.03;5086622;28;20066;-93
2021/08/07 11:25:58;;;;;;;10.63;4.65;;;;;;;31.94;31.92;98221.13;5098506;28;20122;-95
2021/08/07 11:28:26;;;;;;;9.43;4.30;;;;;;;31.91;32.02;98189.38;5092876;28;20047;-92
2021/08/07 11:31:18;;;;;;;10.32;4.25;;;;;;;31.82;32.42;98203.44;5095157;28;20406;-92
2021/08/07 11:33:44;;;;;;;10.25;4.18;;;;;;;31.97;32.13;98196.03;5083618;28;20088;-93
2021/08/07 11:36:15;;;;;;;9.02;4.03;;;;;;;32.13;32.40;98211.47;5094773;28;20065;-93
2021/08/07 11:39:03;;;;;;;9.63;4.07;;;;;;;32.36;32.20;98207.69;5080949;28;20540;-92